createdAt,value
2023-02-28T00:03:36.385Z,100051.19
2023-02-28T00:06:23.666Z,100025.38
2023-02-28T00:09:13.514Z,100032.22
2023-02-28T00:12:00.639Z,100040.81
2023-02-28T00:14:47.837Z,100027.13
2023-02-28T00:17:35.127Z,100051.13
2023-02-28T00:20:28.124Z,100048.06
2023-02-28T00:23:18.241Z,100042.03
2023-02-28T00:26:05.840Z,100040.25
2023-02-28T00:28:54.020Z,100044.63
2023-02-28T00:31:41.212Z,100018.97
2023-02-28T00:34:28.292Z,100013.75
2023-02-28T00:37:15.474Z,100041.47
2023-02-28T00:40:03.400Z,100056.59
2023-02-28T00:42:50.472Z,100049.78
2023-02-28T00:45:37.606Z,100045.56
2023-02-28T00:48:24.743Z,100043.94
2023-02-28T00:51:11.989Z,100034.13
2023-02-28T00:53:59.073Z,100034.78
2023-02-28T00:56:47.112Z,100012.13
2023-02-28T00:59:34.207Z,100005.19
2023-02-28T01:02:23.434Z,100036.03
2023-02-28T01:05:10.595Z,100034.47
2023-02-28T01:08:00.123Z,100032.69
2023-02-28T01:10:47.280Z,100026.41
2023-02-28T01:13:34.339Z,100029.91
2023-02-28T01:16:21.468Z,100039.34
2023-02-28T01:19:08.617Z,100033.16
2023-02-28T01:21:55.780Z,100012.66
2023-02-28T01:24:42.899Z,99995.88
2023-02-28T01:27:30.127Z,100020.84
2023-02-28T01:30:17.438Z,100009.13
2023-02-28T01:33:04.610Z,100017.84
2023-02-28T01:35:59.748Z,100018.88
2023-02-28T01:38:47.983Z,100011.41
2023-02-28T01:41:36.105Z,100016.56
2023-02-28T01:44:56.859Z,100018.28
2023-02-28T01:47:45.041Z,100016.41
2023-02-28T01:50:38.630Z,100007.31
2023-02-28T01:53:33.615Z,100011.09
2023-02-28T01:56:27.705Z,100010.16
2023-02-28T01:59:30.967Z,100007.38
2023-02-28T02:02:20.387Z,100015.00
2023-02-28T02:05:10.530Z,100013.28
2023-02-28T02:07:58.588Z,100005.44
2023-02-28T02:10:50.373Z,99999.41
2023-02-28T02:13:53.828Z,100006.03
2023-02-28T02:17:17.282Z,100006.50
2023-02-28T02:20:13.458Z,100005.44
2023-02-28T02:23:48.381Z,99987.31
2023-02-28T02:26:41.271Z,100006.34
2023-02-28T02:30:04.318Z,100002.75
2023-02-28T02:33:40.574Z,99996.78
2023-02-28T02:36:30.062Z,99993.88
2023-02-28T02:39:51.251Z,99998.28
2023-02-28T02:42:51.858Z,99975.88
2023-02-28T02:46:02.829Z,99986.28
2023-02-28T02:48:54.267Z,99966.50
2023-02-28T02:51:42.861Z,99976.22
2023-02-28T02:54:35.828Z,99984.78
2023-02-28T02:57:30.153Z,99983.06
2023-02-28T03:00:21.858Z,99987.25
2023-02-28T03:03:12.897Z,99992.53
2023-02-28T03:06:01.832Z,99993.72
2023-02-28T03:08:48.880Z,100000.09
2023-02-28T03:11:38.860Z,99975.03
2023-02-28T03:14:28.768Z,99996.88
2023-02-28T03:17:46.745Z,99993.97
2023-02-28T03:20:46.434Z,99969.59
2023-02-28T03:23:43.748Z,100000.00
2023-02-28T03:26:32.430Z,99991.28
2023-02-28T03:29:28.903Z,99996.66
2023-02-28T03:32:22.678Z,99994.19
2023-02-28T03:35:23.913Z,99993.81
2023-02-28T03:38:55.595Z,99994.88
2023-02-28T03:42:00.987Z,99981.91
2023-02-28T03:44:55.924Z,99989.00
2023-02-28T03:47:56.705Z,99983.91
2023-02-28T03:50:47.117Z,99978.75
2023-02-28T03:53:38.758Z,99991.66
2023-02-28T03:56:34.870Z,99987.50
2023-02-28T03:59:29.715Z,99990.94
2023-02-28T04:02:16.831Z,99980.84
2023-02-28T04:05:04.151Z,99979.88
2023-02-28T04:07:51.225Z,99962.41
2023-02-28T04:10:39.058Z,99975.81
2023-02-28T04:13:26.120Z,99966.41
2023-02-28T04:16:18.796Z,99974.03
2023-02-28T04:19:13.634Z,99978.69
2023-02-28T04:22:00.600Z,99952.72
2023-02-28T04:24:47.605Z,99971.91
2023-02-28T04:27:35.143Z,99962.00
2023-02-28T04:30:22.249Z,99951.78
2023-02-28T04:33:09.287Z,99960.28
2023-02-28T04:36:06.192Z,99948.44
2023-02-28T04:38:53.650Z,99955.31
2023-02-28T04:41:40.759Z,99963.91
2023-02-28T04:44:28.132Z,99953.38
2023-02-28T04:47:15.226Z,99935.91
2023-02-28T04:50:02.267Z,99944.78
2023-02-28T04:52:49.322Z,99959.34
2023-02-28T04:55:36.321Z,99949.03
2023-02-28T04:58:26.233Z,99942.09
2023-02-28T05:01:34.155Z,99940.38
2023-02-28T05:04:21.186Z,99953.50
2023-02-28T05:07:08.279Z,99947.91
2023-02-28T05:09:55.336Z,99953.22
2023-02-28T05:12:42.371Z,99959.41
2023-02-28T05:15:29.489Z,99955.75
2023-02-28T05:18:16.481Z,99953.66
2023-02-28T05:21:04.257Z,99949.75
2023-02-28T05:23:51.783Z,99956.16
2023-02-28T05:26:42.479Z,99964.16
2023-02-28T05:29:29.468Z,99963.25
2023-02-28T05:32:16.748Z,99950.19
2023-02-28T05:35:04.630Z,99939.91
2023-02-28T05:37:51.981Z,99950.97
2023-02-28T05:40:44.914Z,99960.97
2023-02-28T05:43:31.978Z,99952.47
2023-02-28T05:46:19.104Z,99952.94
2023-02-28T05:49:06.454Z,99959.53
2023-02-28T05:51:53.639Z,99950.78
2023-02-28T05:54:40.702Z,99967.06
2023-02-28T05:57:27.717Z,99959.06
2023-02-28T06:00:16.806Z,99959.88
2023-02-28T06:03:03.950Z,99951.50
2023-02-28T06:05:51.613Z,99972.97
2023-02-28T06:08:38.647Z,99974.34
2023-02-28T06:11:29.269Z,99919.56
2023-02-28T06:14:18.905Z,99972.88
2023-02-28T06:17:06.243Z,99975.22
2023-02-28T06:19:53.299Z,99970.00
2023-02-28T06:22:40.852Z,99972.63
2023-02-28T06:25:28.951Z,99966.50
2023-02-28T06:28:16.160Z,99977.72
2023-02-28T06:31:15.426Z,99962.94
2023-02-28T06:34:02.532Z,99978.66
2023-02-28T06:36:52.267Z,99976.38
2023-02-28T06:39:39.402Z,99973.38
2023-02-28T06:42:29.920Z,99980.41
2023-02-28T06:45:16.996Z,99959.25
2023-02-28T06:48:04.122Z,99963.72
2023-02-28T06:50:51.684Z,99980.84
2023-02-28T06:53:39.675Z,99975.69
2023-02-28T06:56:26.784Z,99970.78
2023-02-28T06:59:14.290Z,99968.22
2023-02-28T07:02:01.433Z,99952.81
2023-02-28T07:04:48.610Z,99954.06
2023-02-28T07:07:37.441Z,99981.53
2023-02-28T07:10:24.492Z,99966.28
2023-02-28T07:13:11.703Z,99959.81
2023-02-28T07:16:04.860Z,99976.28
2023-02-28T07:18:54.287Z,99947.56
2023-02-28T07:21:41.410Z,99953.75
2023-02-28T07:24:29.476Z,99958.22
2023-02-28T07:27:24.754Z,99935.59
2023-02-28T07:30:13.231Z,99966.00
2023-02-28T07:33:00.434Z,99932.09
2023-02-28T07:35:47.612Z,99960.16
2023-02-28T07:38:36.384Z,99957.75
2023-02-28T07:41:25.829Z,99949.56
2023-02-28T07:44:13.302Z,99969.72
2023-02-28T07:47:00.649Z,99947.13
2023-02-28T07:49:47.781Z,99951.13
2023-02-28T07:52:34.867Z,99944.19
2023-02-28T07:55:21.933Z,99964.88
2023-02-28T07:58:09.066Z,99965.50
2023-02-28T08:00:56.869Z,99936.91
2023-02-28T08:03:43.874Z,99926.22
2023-02-28T08:06:30.965Z,99929.16
2023-02-28T08:09:18.042Z,99972.69
2023-02-28T08:12:05.300Z,99974.78
2023-02-28T08:14:52.385Z,99972.94
2023-02-28T08:17:39.902Z,99971.75
2023-02-28T08:20:28.119Z,99950.41
2023-02-28T08:23:15.614Z,99958.63
2023-02-28T08:26:03.295Z,99966.66
2023-02-28T08:28:50.670Z,99972.09
2023-02-28T08:31:37.725Z,99971.59
2023-02-28T08:34:24.896Z,99978.34
2023-02-28T08:37:12.361Z,99974.38
2023-02-28T08:39:59.564Z,99968.16
2023-02-28T08:42:47.219Z,99972.34
2023-02-28T08:45:34.332Z,99983.78
2023-02-28T08:48:21.420Z,99971.00
2023-02-28T08:51:11.355Z,99975.03
2023-02-28T08:54:01.893Z,99967.06
2023-02-28T08:56:48.980Z,99968.53
2023-02-28T08:59:36.079Z,99979.88
2023-02-28T09:02:23.282Z,99971.41
2023-02-28T09:05:10.357Z,99975.94
2023-02-28T09:07:57.494Z,99950.75
2023-02-28T09:10:44.534Z,99965.25
2023-02-28T09:13:33.356Z,99977.50
2023-02-28T09:16:20.789Z,99966.53
2023-02-28T09:19:08.085Z,99964.81
2023-02-28T09:21:55.150Z,99969.00
2023-02-28T09:24:42.385Z,99971.78
2023-02-28T09:27:29.521Z,99968.19
2023-02-28T09:30:17.365Z,99973.06
2023-02-28T09:33:04.864Z,99976.31
2023-02-28T09:35:58.693Z,99961.94
2023-02-28T09:38:48.127Z,99962.09
2023-02-28T09:41:51.379Z,99975.56
2023-02-28T09:44:45.393Z,99980.66
2023-02-28T09:47:37.807Z,99982.34
2023-02-28T09:50:27.854Z,99978.22
2023-02-28T09:53:24.891Z,99975.38
2023-02-28T09:56:21.203Z,99965.53
2023-02-28T09:59:46.651Z,99981.16
2023-02-28T10:02:39.342Z,99979.91
2023-02-28T10:05:37.237Z,99983.31
2023-02-28T10:08:30.252Z,99981.97
2023-02-28T10:11:19.429Z,99986.34
2023-02-28T10:14:12.527Z,99968.69
2023-02-28T10:17:06.580Z,99983.31
2023-02-28T10:19:59.985Z,99999.06
2023-02-28T10:23:11.642Z,99985.50
2023-02-28T10:26:06.856Z,99963.31
2023-02-28T10:28:54.421Z,99983.88
2023-02-28T10:31:41.956Z,99963.38
2023-02-28T10:34:29.306Z,99984.56
2023-02-28T10:37:16.954Z,99972.16
2023-02-28T10:40:06.912Z,99973.50
2023-02-28T10:43:19.547Z,99971.66
2023-02-28T10:46:26.950Z,99967.63
2023-02-28T10:49:22.257Z,99975.59
2023-02-28T10:52:10.894Z,99959.44
2023-02-28T10:55:26.284Z,99982.16
2023-02-28T10:58:24.652Z,99967.06
2023-02-28T11:01:39.514Z,99971.63
2023-02-28T11:04:30.592Z,99971.53
2023-02-28T11:07:23.147Z,99967.81
2023-02-28T11:10:22.307Z,99958.31
2023-02-28T11:13:21.576Z,99952.09
2023-02-28T11:16:12.085Z,99956.09
2023-02-28T11:19:00.965Z,99954.34
2023-02-28T11:21:55.829Z,99951.13
2023-02-28T11:24:47.015Z,99945.78
2023-02-28T11:27:34.919Z,99936.84
2023-02-28T11:30:36.740Z,99962.31
2023-02-28T11:33:29.974Z,99936.41
2023-02-28T11:36:17.499Z,99940.28
2023-02-28T11:39:13.569Z,99932.78
2023-02-28T11:42:45.541Z,99920.44
2023-02-28T11:45:44.027Z,99911.31
2023-02-28T11:49:03.626Z,99919.69
2023-02-28T11:52:04.188Z,99927.59
2023-02-28T11:55:18.684Z,99917.78
2023-02-28T11:58:21.041Z,99916.09
2023-02-28T12:01:18.894Z,99922.63
2023-02-28T12:04:41.408Z,99921.38
2023-02-28T12:07:52.869Z,99904.47
2023-02-28T12:10:59.521Z,99906.56
2023-02-28T12:13:59.642Z,99900.19
2023-02-28T12:17:10.147Z,99901.22
2023-02-28T12:20:18.066Z,99896.53
2023-02-28T12:23:23.312Z,99907.59
2023-02-28T12:26:25.729Z,99903.00
2023-02-28T12:29:17.255Z,99895.28
2023-02-28T12:32:14.828Z,99899.47
2023-02-28T12:35:16.132Z,99895.75
2023-02-28T12:38:35.854Z,99895.94
2023-02-28T12:41:54.775Z,99875.97
2023-02-28T12:44:53.494Z,99892.81
2023-02-28T12:47:44.284Z,99887.75
2023-02-28T12:50:32.892Z,99880.19
2023-02-28T12:53:29.882Z,99890.53
2023-02-28T12:56:54.956Z,99884.34
2023-02-28T12:59:52.759Z,99866.84
2023-02-28T13:02:53.760Z,99890.44
2023-02-28T13:06:07.776Z,99879.19
2023-02-28T13:09:03.567Z,99883.38
2023-02-28T13:11:53.684Z,99877.00
2023-02-28T13:14:41.046Z,99868.25
2023-02-28T13:17:28.260Z,99866.25
2023-02-28T13:20:25.124Z,99868.16
2023-02-28T13:23:53.485Z,99881.88
2023-02-28T13:26:40.461Z,99857.13
2023-02-28T13:29:35.265Z,99875.13
2023-02-28T13:32:37.739Z,99866.69
2023-02-28T13:35:43.964Z,99863.25
2023-02-28T13:38:41.724Z,99847.72
2023-02-28T13:41:32.034Z,99855.97
2023-02-28T13:44:27.889Z,99853.00
2023-02-28T13:47:23.099Z,99856.16
2023-02-28T13:50:30.446Z,99871.66
2023-02-28T13:53:17.560Z,99861.19
2023-02-28T13:56:10.186Z,99871.84
2023-02-28T13:59:14.555Z,99859.16
2023-02-28T14:02:04.535Z,99852.13
2023-02-28T14:05:11.652Z,99861.72
2023-02-28T14:08:00.809Z,99862.88
2023-02-28T14:10:49.095Z,99871.31
2023-02-28T14:13:48.321Z,99865.91
2023-02-28T14:16:45.931Z,99882.88
2023-02-28T14:19:35.413Z,99859.16
2023-02-28T14:22:52.631Z,99872.63
2023-02-28T14:26:11.713Z,99851.16
2023-02-28T14:29:32.546Z,99863.09
2023-02-28T14:32:47.778Z,99852.00
2023-02-28T14:35:59.435Z,99871.53
2023-02-28T14:38:53.102Z,99855.41
2023-02-28T14:41:42.237Z,99858.81
2023-02-28T14:44:29.603Z,99859.66
2023-02-28T14:47:17.516Z,99865.53
2023-02-28T14:50:06.131Z,99873.81
2023-02-28T14:52:56.289Z,99886.50
2023-02-28T14:55:45.706Z,99875.94
2023-02-28T14:58:34.764Z,99888.50
2023-02-28T15:01:25.194Z,99882.97
2023-02-28T15:04:23.681Z,99874.16
2023-02-28T15:07:18.313Z,99876.19
2023-02-28T15:10:10.765Z,99871.44
2023-02-28T15:13:02.873Z,99876.56
2023-02-28T15:16:03.908Z,99890.94
2023-02-28T15:18:55.424Z,99880.00
2023-02-28T15:21:46.908Z,99897.56
2023-02-28T15:24:41.672Z,99885.84
2023-02-28T15:27:33.478Z,99893.66
2023-02-28T15:30:32.203Z,99879.59
2023-02-28T15:33:22.797Z,99896.72
2023-02-28T15:36:18.651Z,99895.63
2023-02-28T15:39:24.326Z,99893.91
2023-02-28T15:42:31.003Z,99908.38
2023-02-28T15:45:39.616Z,99898.13
2023-02-28T15:48:38.957Z,99884.16
2023-02-28T15:51:37.318Z,99898.03
2023-02-28T15:54:28.610Z,99872.25
2023-02-28T15:57:30.589Z,99902.19
2023-02-28T16:00:22.398Z,99888.63
2023-02-28T16:03:36.139Z,99899.16
2023-02-28T16:06:32.112Z,99912.66
2023-02-28T16:09:19.454Z,99899.00
2023-02-28T16:12:07.084Z,99902.34
2023-02-28T16:14:56.508Z,99910.13
2023-02-28T16:17:43.789Z,99910.28
2023-02-28T16:20:32.328Z,99924.47
2023-02-28T16:23:19.622Z,99893.69
2023-02-28T16:26:11.328Z,99924.16
2023-02-28T16:28:58.757Z,99932.31
2023-02-28T16:31:46.212Z,99937.97
2023-02-28T16:34:33.497Z,99933.69
2023-02-28T16:37:24.888Z,99936.19
2023-02-28T16:40:22.487Z,99943.38
2023-02-28T16:43:17.622Z,99945.72
2023-02-28T16:46:05.044Z,99940.47
2023-02-28T16:48:52.723Z,99951.72
2023-02-28T16:51:40.682Z,99958.47
2023-02-28T16:54:28.048Z,99943.16
2023-02-28T16:57:24.829Z,99952.81
2023-02-28T17:00:14.296Z,99948.78
2023-02-28T17:03:04.599Z,99953.72
2023-02-28T17:05:53.397Z,99965.81
2023-02-28T17:08:40.478Z,99979.25
2023-02-28T17:11:28.525Z,99956.63
2023-02-28T17:14:16.585Z,99978.63
2023-02-28T17:17:06.271Z,99980.25
2023-02-28T17:19:53.487Z,99989.59
2023-02-28T17:22:40.817Z,99995.31
2023-02-28T17:25:28.292Z,99993.59
2023-02-28T17:28:17.602Z,99994.63
2023-02-28T17:31:05.126Z,99996.34
2023-02-28T17:33:54.316Z,99985.03
2023-02-28T17:36:42.683Z,99985.34
2023-02-28T17:39:30.040Z,100009.44
2023-02-28T17:42:20.307Z,99995.91
2023-02-28T17:45:11.743Z,100005.66
2023-02-28T17:48:00.289Z,99996.94
2023-02-28T17:50:56.968Z,100006.50
2023-02-28T17:53:45.346Z,99990.59
2023-02-28T17:56:35.040Z,100019.28
2023-02-28T17:59:22.336Z,100000.53
2023-02-28T18:02:13.774Z,100020.78
2023-02-28T18:05:04.522Z,100013.00
2023-02-28T18:07:52.747Z,100017.72
2023-02-28T18:10:40.720Z,100032.66
2023-02-28T18:13:28.993Z,100028.03
2023-02-28T18:16:18.190Z,100025.13
2023-02-28T18:19:07.588Z,100028.63
2023-02-28T18:21:55.309Z,100029.69
2023-02-28T18:24:43.177Z,100035.88
2023-02-28T18:27:32.597Z,100018.44
2023-02-28T18:30:23.514Z,100028.03
2023-02-28T18:33:11.483Z,100037.75
2023-02-28T18:35:59.033Z,100030.53
2023-02-28T18:38:47.180Z,100035.25
2023-02-28T18:41:35.905Z,100043.25
2023-02-28T18:44:26.464Z,100011.84
2023-02-28T18:47:14.786Z,100020.34
2023-02-28T18:50:02.927Z,99993.00
2023-02-28T18:52:51.942Z,100028.94
2023-02-28T18:55:39.934Z,100031.06
2023-02-28T18:58:28.198Z,100036.56
2023-02-28T19:01:35.912Z,100033.94
2023-02-28T19:04:24.712Z,100046.94
2023-02-28T19:07:13.032Z,100042.59
2023-02-28T19:10:00.930Z,100036.13
2023-02-28T19:12:49.239Z,100039.06
2023-02-28T19:15:38.668Z,100035.72
2023-02-28T19:18:30.340Z,100043.66
2023-02-28T19:21:20.114Z,100037.03
2023-02-28T19:24:09.471Z,100043.72
2023-02-28T19:26:57.540Z,100054.63
2023-02-28T19:29:48.215Z,100046.03
2023-02-28T19:32:36.431Z,100050.25
2023-02-28T19:35:24.770Z,100034.13
2023-02-28T19:38:12.836Z,100054.75
2023-02-28T19:41:03.058Z,100050.66
2023-02-28T19:43:53.351Z,100046.22
2023-02-28T19:46:40.987Z,100055.88
2023-02-28T19:49:28.695Z,100059.84
2023-02-28T19:52:16.496Z,100054.78
2023-02-28T19:55:04.328Z,100057.09
2023-02-28T19:57:52.289Z,100052.28
2023-02-28T20:00:41.072Z,100055.44
2023-02-28T20:03:28.783Z,100062.00
2023-02-28T20:06:16.717Z,100064.91
2023-02-28T20:09:07.791Z,100067.13
2023-02-28T20:12:00.354Z,100066.88
2023-02-28T20:14:50.638Z,100067.06
2023-02-28T20:17:38.589Z,100065.03
2023-02-28T20:20:26.873Z,100059.94
2023-02-28T20:23:14.298Z,100065.81
2023-02-28T20:26:02.565Z,100063.56
2023-02-28T20:28:50.973Z,100065.59
2023-02-28T20:31:42.011Z,100066.91
2023-02-28T20:34:29.988Z,100071.47
2023-02-28T20:37:18.032Z,100069.50
2023-02-28T20:40:06.286Z,100058.97
2023-02-28T20:42:55.532Z,100067.53
2023-02-28T20:45:52.168Z,100062.19
2023-02-28T20:48:40.906Z,100061.19
2023-02-28T20:51:28.521Z,100063.66
2023-02-28T20:54:17.967Z,100060.63
2023-02-28T20:57:06.317Z,100060.16
2023-02-28T20:59:53.772Z,100059.66
2023-02-28T21:02:40.974Z,100059.41
2023-02-28T21:05:28.534Z,100059.03
2023-02-28T21:08:16.357Z,100060.09
2023-02-28T21:11:07.876Z,100064.94
2023-02-28T21:13:55.660Z,100056.47
2023-02-28T21:16:44.834Z,100054.81
2023-02-28T21:19:33.048Z,100050.44
2023-02-28T21:22:20.269Z,100054.06
2023-02-28T21:25:07.907Z,100049.09
2023-02-28T21:27:55.827Z,100047.69
2023-02-28T21:30:42.967Z,100044.06
2023-02-28T21:33:30.519Z,100042.63
2023-02-28T21:36:20.195Z,100037.19
2023-02-28T21:39:09.176Z,100042.50
2023-02-28T21:41:57.411Z,100038.84
2023-02-28T21:44:44.531Z,100032.97
2023-02-28T21:47:31.718Z,100037.44
2023-02-28T21:50:18.626Z,100037.31
2023-02-28T21:53:05.592Z,100030.31
2023-02-28T21:55:52.567Z,100037.31
2023-02-28T21:58:39.567Z,100036.63
2023-02-28T22:01:46.817Z,100038.50
2023-02-28T22:04:33.847Z,100041.72
2023-02-28T22:07:20.811Z,100043.03
2023-02-28T22:10:09.170Z,100034.31
2023-02-28T22:12:56.072Z,100040.13
2023-02-28T22:15:43.029Z,100047.16
2023-02-28T22:18:29.986Z,100050.44
2023-02-28T22:21:17.681Z,100048.88
2023-02-28T22:24:04.847Z,100052.63
2023-02-28T22:26:52.485Z,100046.34
2023-02-28T22:29:39.406Z,100053.81
2023-02-28T22:32:26.484Z,100051.13
2023-02-28T22:35:15.764Z,100048.31
2023-02-28T22:38:02.691Z,100049.28
2023-02-28T22:40:49.692Z,100053.03
2023-02-28T22:43:36.624Z,100055.31
2023-02-28T22:46:24.116Z,100053.19
2023-02-28T22:49:11.108Z,100060.94
2023-02-28T22:51:58.062Z,100052.16
2023-02-28T22:54:44.989Z,100057.19
2023-02-28T22:57:31.990Z,100050.88
2023-02-28T23:00:19.076Z,100058.69
2023-02-28T23:03:05.998Z,100051.53
2023-02-28T23:05:53.519Z,100059.84
2023-02-28T23:08:42.520Z,100056.91
2023-02-28T23:11:31.062Z,100053.06
2023-02-28T23:14:19.446Z,100043.59
2023-02-28T23:17:06.479Z,100042.00
2023-02-28T23:19:53.414Z,100051.22
2023-02-28T23:22:40.357Z,100046.84
2023-02-28T23:25:27.307Z,100044.22
2023-02-28T23:28:15.377Z,100051.13
2023-02-28T23:31:04.675Z,100042.09
2023-02-28T23:33:52.436Z,100048.22
2023-02-28T23:36:40.039Z,100046.00
2023-02-28T23:39:27.952Z,100046.84
2023-02-28T23:42:15.116Z,100045.06
2023-02-28T23:45:02.450Z,100044.50
2023-02-28T23:47:49.702Z,100042.78
2023-02-28T23:50:37.876Z,100041.63
2023-02-28T23:53:25.079Z,100039.34
2023-02-28T23:56:14.863Z,100039.22
2023-02-28T23:59:01.873Z,100046.75
